.
WxDataArchive / Data Records for 2013-09-25
2013-09-24 September 2013 2013-09-26

Data Records for Wednesday, 25 September 2013

Time	Temp	Chill	HIndex	Humid	Dewpt	 Wind 	HiWind	WindDir	Rain 	Barom 
-----	----	-----	------	-----	-----	------	------	-------	-----	----- 
00:00	53.2	53.2	53.2	81	47.5	0	1	112	0.00	29.949 
00:05	53.1	53.1	53.1	82	47.8	0	1	112	0.00	29.949 
00:10	52.9	52.9	52.9	82	47.6	0	1	112	0.00	29.949 
00:15	52.9	52.9	52.9	82	47.6	0	0	---	0.00	29.950 
00:20	52.8	52.8	52.8	83	47.8	0	1	112	0.00	29.950 
00:25	52.6	52.6	52.6	83	47.6	0	0	---	0.00	29.950 
00:30	52.5	52.5	52.5	84	47.8	0	0	---	0.00	29.947 
00:35	52.3	52.3	52.3	84	47.6	0	0	---	0.00	29.947 
00:40	52.2	52.2	52.2	84	47.5	0	0	---	0.00	29.947 
00:45	52.0	52.0	52.0	84	47.3	0	0	---	0.00	29.947 
00:50	51.9	51.9	51.9	85	47.5	0	1	112	0.00	29.947 
00:55	52.0	52.0	52.0	86	47.9	0	2	112	0.00	29.947 
01:00	52.0	52.0	52.0	86	47.9	0	1	112	0.00	29.946 
01:05	51.9	51.9	51.9	86	47.8	0	1	112	0.00	29.946 
01:10	51.7	51.7	51.7	86	47.6	0	1	112	0.00	29.946 
01:15	51.4	51.4	51.4	86	47.4	0	0	---	0.00	29.945 
01:20	51.3	51.3	51.3	86	47.3	0	0	---	0.00	29.945 
01:25	51.1	51.1	51.1	86	47.1	0	0	---	0.00	29.945 
01:30	51.0	51.0	51.0	87	47.3	0	0	---	0.00	29.943 
01:35	51.0	51.0	51.0	88	47.6	0	1	112	0.00	29.943 
01:40	50.8	50.8	50.8	88	47.4	0	1	112	0.00	29.943 
01:45	51.0	51.0	51.0	89	47.9	0	1	112	0.00	29.943 
01:50	51.1	51.1	51.1	89	48.0	0	1	112	0.00	29.943 
01:55	51.1	51.1	51.1	89	48.0	0	2	112	0.00	29.943 
02:00	51.1	51.1	51.1	89	48.0	0	1	112	0.00	29.940 
02:05	51.1	51.1	51.1	89	48.0	0	1	112	0.00	29.940 
02:10	51.3	51.3	51.3	89	48.2	0	1	112	0.00	29.940 
02:15	51.3	51.3	51.3	90	48.5	0	2	112	0.00	29.938 
02:20	51.3	51.3	51.3	90	48.5	0	1	112	0.00	29.938 
02:25	51.3	51.3	51.3	90	48.5	0	2	112	0.00	29.938 
02:30	51.3	51.3	51.3	90	48.5	0	1	112	0.00	29.934 
02:35	51.1	51.1	51.1	90	48.3	0	2	112	0.00	29.934 
02:40	51.1	51.1	51.1	90	48.3	0	1	112	0.00	29.934 
02:45	51.0	51.0	51.0	90	48.2	0	1	112	0.00	29.933 
02:50	51.0	51.0	51.0	90	48.2	0	1	112	0.00	29.933 
02:55	50.8	50.8	50.8	90	48.0	0	0	---	0.00	29.933 
03:00	50.8	50.8	50.8	90	48.0	0	0	---	0.00	29.941 
03:05	50.7	50.7	50.7	90	47.9	0	0	---	0.00	29.941 
03:10	50.5	50.5	50.5	91	48.0	0	1	112	0.00	29.941 
03:15	50.4	50.4	50.4	91	47.9	0	0	---	0.00	29.930 
03:20	50.2	50.2	50.2	91	47.7	0	0	---	0.00	29.930 
03:25	50.1	50.1	50.1	91	47.6	0	0	---	0.00	29.930 
03:30	50.1	50.1	50.1	91	47.6	0	0	---	0.00	29.927 
03:35	50.1	50.1	50.1	91	47.6	0	0	---	0.00	29.927 
03:40	50.1	50.1	50.1	92	47.9	0	1	112	0.00	29.927 
03:45	50.1	50.1	50.1	92	47.9	0	0	---	0.00	29.927 
03:50	50.1	50.1	50.1	92	47.9	0	1	112	0.00	29.927 
03:55	50.1	50.1	50.1	92	47.9	0	1	112	0.00	29.927 
04:00	49.8	49.8	49.8	92	47.6	0	0	---	0.00	29.925 
04:05	49.6	49.6	49.6	92	47.4	0	0	---	0.00	29.925 
04:10	49.5	49.5	49.5	92	47.3	0	0	---	0.00	29.925 
04:15	49.4	49.4	49.4	92	47.2	0	0	---	0.00	29.927 
04:20	49.2	49.2	49.2	92	47.0	0	0	---	0.00	29.927 
04:25	49.1	49.1	49.1	92	46.9	0	0	---	0.00	29.927 
04:30	49.1	49.1	49.1	92	46.9	0	0	---	0.00	29.927 
04:35	48.9	48.9	48.9	92	46.7	0	0	---	0.00	29.927 
04:40	48.9	48.9	48.9	92	46.7	0	0	---	0.00	29.927 
04:45	48.9	48.9	48.9	92	46.7	0	0	---	0.00	29.925 
04:50	48.9	48.9	48.9	92	46.7	0	0	---	0.00	29.925 
04:55	48.9	48.9	48.9	93	47.0	0	0	---	0.00	29.925 
05:00	48.9	48.9	48.9	93	47.0	0	0	---	0.00	29.926 
05:05	48.9	48.9	48.9	93	47.0	0	0	---	0.00	29.926 
05:10	48.9	48.9	48.9	93	47.0	0	1	112	0.00	29.926 
05:15	49.1	49.1	49.1	93	47.2	0	0	---	0.00	29.924 
05:20	49.1	49.1	49.1	93	47.2	0	0	---	0.00	29.924 
05:25	49.2	49.2	49.2	93	47.3	0	1	112	0.00	29.924 
05:30	49.2	49.2	49.2	93	47.3	0	1	112	0.00	29.923 
05:35	49.4	49.4	49.4	93	47.5	0	1	112	0.00	29.923 
05:40	49.2	49.2	49.2	93	47.3	0	0	---	0.00	29.923 
05:45	49.1	49.1	49.1	93	47.2	0	0	---	0.00	29.921 
05:50	48.9	48.9	48.9	93	47.0	0	0	---	0.00	29.921 
05:55	48.8	48.8	48.8	93	46.9	0	0	---	0.00	29.921 
06:00	48.8	48.8	48.8	94	47.1	0	0	---	0.00	29.922 
06:05	48.8	48.8	48.8	94	47.1	0	0	---	0.00	29.922 
06:10	48.6	48.6	48.6	94	47.0	0	0	---	0.00	29.922 
06:15	48.6	48.6	48.6	94	47.0	0	0	---	0.00	29.926 
06:20	48.6	48.6	48.6	94	47.0	0	1	112	0.00	29.926 
06:25	48.6	48.6	48.6	94	47.0	0	0	---	0.00	29.926 
06:30	48.6	48.6	48.6	94	47.0	0	0	---	0.00	29.922 
06:35	48.6	48.6	48.6	94	47.0	0	0	---	0.00	29.922 
06:40	48.6	48.6	48.6	94	47.0	0	0	---	0.00	29.922 
06:45	48.5	48.5	48.5	94	46.9	0	0	---	0.00	29.929 
06:50	48.5	48.5	48.5	94	46.9	0	0	---	0.00	29.929 
06:55	48.3	48.3	48.3	94	46.7	0	0	---	0.00	29.929 
07:00	48.2	48.2	48.2	94	46.6	0	0	---	0.00	29.931 
07:05	48.2	48.2	48.2	94	46.6	0	0	---	0.00	29.931 
07:10	48.0	48.0	48.0	94	46.4	0	0	---	0.00	29.931 
07:15	48.0	48.0	48.0	94	46.4	0	0	---	0.00	29.945 
07:20	47.9	47.9	47.9	94	46.3	0	0	---	0.00	29.945 
07:25	47.9	47.9	47.9	94	46.3	0	0	---	0.00	29.945 
07:30	47.7	47.7	47.7	94	46.1	0	0	---	0.00	29.944 
07:35	47.7	47.7	47.7	94	46.1	0	0	---	0.00	29.944 
07:40	47.9	47.9	47.9	94	46.3	0	0	---	0.00	29.944 
07:45	47.9	47.9	47.9	95	46.5	0	0	---	0.00	29.950 
07:50	47.9	47.9	47.9	95	46.5	0	0	---	0.00	29.950 
07:55	47.9	47.9	47.9	94	46.3	0	0	---	0.00	29.950 
08:00	47.9	47.9	47.9	95	46.5	0	0	---	0.00	29.952 
08:05	47.9	47.9	47.9	95	46.5	0	0	---	0.00	29.952 
08:10	48.0	48.0	48.0	95	46.6	0	0	---	0.00	29.952 
08:15	48.2	48.2	48.2	95	46.8	0	1	112	0.00	29.956 
08:20	48.6	48.6	48.6	95	47.2	0	1	112	0.00	29.956 
08:25	48.8	48.8	48.8	95	47.4	0	1	112	0.00	29.956 
08:30	49.1	49.1	49.1	95	47.7	0	1	112	0.00	29.956 
08:35	49.4	49.4	49.4	95	48.0	0	1	112	0.00	29.956 
08:40	49.4	49.4	49.4	95	48.0	0	0	---	0.00	29.956 
08:45	49.5	49.5	49.5	95	48.1	0	0	---	0.00	29.960 
08:50	49.8	49.8	49.8	95	48.4	0	2	112	0.00	29.960 
08:55	49.9	49.9	49.9	95	48.5	0	1	112	0.00	29.960 
09:00	50.1	50.1	50.1	95	48.7	0	1	112	0.00	29.964 
09:05	50.2	50.2	50.2	95	48.8	0	2	112	0.00	29.964 
09:10	50.4	50.4	50.4	95	49.0	0	1	112	0.00	29.964 
09:15	50.7	50.7	50.7	95	49.3	0	1	112	0.00	29.968 
09:20	51.0	51.0	51.0	95	49.6	0	2	112	0.00	29.968 
09:25	51.3	51.3	51.3	95	49.9	0	1	112	0.00	29.968 
09:30	51.9	51.9	51.9	95	50.5	1	3	112	0.00	29.968 
09:35	52.3	52.3	52.3	95	50.9	1	3	112	0.00	29.968 
09:40	52.9	52.9	52.9	95	51.5	1	5	112	0.00	29.968 
09:45	53.3	53.3	53.3	95	51.9	1	4	112	0.00	29.967 
09:50	53.8	53.8	53.8	94	52.1	2	4	112	0.00	29.967 
09:55	54.2	54.2	54.2	93	52.2	2	4	112	0.00	29.967 
10:00	54.8	54.8	54.8	92	52.5	1	4	112	0.00	29.964 
10:05	55.3	55.3	55.3	91	52.7	1	3	112	0.00	29.964 
10:10	55.6	55.6	55.6	89	52.4	2	5	112	0.00	29.964 
10:15	55.9	55.9	55.9	88	52.4	1	4	112	0.00	29.967 
10:20	56.0	56.0	56.0	87	52.2	1	3	112	0.00	29.967 
10:25	56.6	56.6	56.6	86	52.5	1	4	112	0.00	29.967 
10:30	57.2	57.2	57.2	84	52.4	2	5	112	0.00	29.968 
10:35	57.8	57.8	57.8	83	52.7	1	4	68	0.00	29.968 
10:40	58.4	58.4	58.4	82	52.9	0	2	68	0.00	29.968 
10:45	58.7	58.7	58.7	80	52.5	1	4	68	0.00	29.964 
10:50	59.0	59.0	59.0	78	52.1	1	2	68	0.00	29.964 
10:55	59.3	59.3	59.3	77	52.1	1	3	68	0.00	29.964 
11:00	59.3	59.3	59.3	76	51.7	2	4	68	0.00	29.965 
11:05	59.6	59.6	59.6	77	52.4	0	2	68	0.00	29.965 
11:10	60.4	60.4	60.4	76	52.8	0	2	68	0.00	29.965 
11:15	61.0	61.0	61.0	74	52.6	1	3	68	0.00	29.966 
11:20	61.5	61.5	61.5	72	52.4	1	5	68	0.00	29.966 
11:25	61.5	61.5	61.5	72	52.4	2	5	90	0.00	29.966 
11:30	61.6	61.6	61.6	69	51.3	2	4	90	0.00	29.964 
11:35	62.1	62.1	62.1	70	52.2	1	3	90	0.00	29.964 
11:40	62.9	62.9	62.9	69	52.6	1	2	90	0.00	29.964 
11:45	63.4	63.4	63.4	67	52.2	2	6	90	0.00	29.960 
11:50	63.2	63.2	63.2	66	51.6	3	7	90	0.00	29.960 
11:55	63.7	63.7	63.7	67	52.5	1	3	90	0.00	29.960 
12:00	64.5	64.5	64.5	66	52.9	0	3	68	0.00	29.958 
12:05	65.3	65.3	65.3	65	53.2	1	3	68	0.00	29.958 
12:10	65.8	65.8	65.8	61	52.0	1	4	68	0.00	29.958 
12:15	65.8	65.8	65.8	61	52.0	1	2	68	0.00	29.957 
12:20	65.6	65.6	65.6	60	51.3	1	4	68	0.00	29.957 
12:25	65.3	65.3	65.3	58	50.1	2	5	90	0.00	29.957 
12:30	65.5	65.5	65.5	57	49.9	1	4	90	0.00	29.957 
12:35	65.8	65.8	65.8	56	49.7	2	5	90	0.00	29.957 
12:40	66.1	66.1	66.1	54	49.0	2	6	90	0.00	29.957 
12:45	66.4	66.4	66.4	53	48.7	2	6	90	0.00	29.948 
12:50	66.6	66.6	66.6	54	49.4	2	9	90	0.00	29.948 
12:55	67.3	67.3	67.3	54	50.1	2	5	90	0.00	29.948 
13:00	67.9	67.9	67.9	52	49.6	1	4	90	0.00	29.941 
13:05	68.1	68.1	68.1	51	49.3	3	7	90	0.00	29.941 
13:10	67.9	67.9	67.9	51	49.1	3	6	90	0.00	29.941 
13:15	67.8	67.8	67.8	50	48.5	3	7	90	0.00	29.937 
13:20	67.8	67.8	67.8	49	47.9	3	9	90	0.00	29.937 
13:25	67.9	67.9	67.9	50	48.6	2	7	90	0.00	29.937 
13:30	68.1	68.1	68.1	51	49.3	3	7	90	0.00	29.936 
13:35	68.4	68.4	68.4	51	49.6	2	4	90	0.00	29.936 
13:40	68.9	68.9	68.9	50	49.5	2	5	90	0.00	29.936 
13:45	68.9	68.9	68.9	50	49.5	3	6	90	0.00	29.932 
13:50	68.8	68.8	68.8	50	49.4	2	5	90	0.00	29.932 
13:55	68.8	68.8	68.8	49	48.8	2	6	90	0.00	29.932 
14:00	69.3	69.3	69.3	50	49.8	1	5	90	0.00	29.924 
14:05	69.4	69.4	69.4	51	50.5	1	6	112	0.00	29.924 
14:10	69.8	69.8	69.8	50	50.3	1	4	22	0.00	29.924 
14:15	70.1	70.1	70.1	51	51.1	1	3	90	0.00	29.920 
14:20	70.1	70.1	70.1	48	49.5	2	9	68	0.00	29.920 
14:25	69.6	69.6	69.6	50	50.1	2	6	112	0.00	29.920 
14:30	69.4	69.4	69.4	50	49.9	1	5	112	0.00	29.912 
14:35	69.3	69.3	69.3	50	49.8	2	5	112	0.00	29.912 
14:40	69.1	69.1	69.1	49	49.1	2	6	90	0.00	29.912 
14:45	69.3	69.3	69.3	50	49.8	1	3	90	0.00	29.909 
14:50	69.6	69.6	69.6	48	49.0	1	4	135	0.00	29.909 
14:55	69.9	69.9	69.9	47	48.7	2	6	90	0.00	29.909 
15:00	69.9	69.9	69.9	49	49.9	1	3	112	0.00	29.906 
15:05	69.8	69.8	69.8	49	49.8	1	4	112	0.00	29.906 
15:10	69.6	69.6	69.6	50	50.1	1	3	112	0.00	29.906 
15:15	69.6	69.6	69.6	50	50.1	1	3	112	0.00	29.903 
15:20	69.4	69.4	69.4	49	49.4	1	3	135	0.00	29.903 
15:25	69.3	69.3	69.3	45	47.0	2	5	90	0.00	29.903 
15:30	69.3	69.3	69.3	46	47.6	0	2	90	0.00	29.904 
15:35	69.3	69.3	69.3	47	48.2	1	4	90	0.00	29.904 
15:40	69.4	69.4	69.4	46	47.7	0	2	90	0.00	29.904 
15:45	69.6	69.6	69.6	46	47.9	0	1	90	0.00	29.898 
15:50	69.9	69.9	69.9	47	48.7	0	1	90	0.00	29.898 
15:55	70.1	70.1	70.1	45	47.8	0	3	90	0.00	29.898 
16:00	70.1	70.1	70.1	45	47.8	0	3	90	0.00	29.898 
16:05	70.3	70.3	70.3	44	47.3	1	2	90	0.00	29.898 
16:10	70.3	70.3	70.3	46	48.5	0	3	90	0.00	29.898 
16:15	70.3	70.3	70.3	48	49.7	0	2	90	0.00	29.900 
16:20	70.1	70.1	70.1	50	50.6	0	1	270	0.00	29.900 
16:25	69.9	69.9	69.9	51	50.9	0	2	270	0.00	29.900 
16:30	69.8	69.8	69.8	50	50.3	0	1	270	0.00	29.902 
16:35	69.6	69.6	69.6	50	50.1	0	2	270	0.00	29.902 
16:40	69.8	69.8	69.8	52	51.4	0	1	270	0.00	29.902 
16:45	70.3	70.3	70.3	50	50.8	1	4	270	0.00	29.898 
16:50	70.4	70.4	70.4	49	50.3	1	4	90	0.00	29.898 
16:55	70.4	70.4	70.4	50	50.9	1	2	248	0.00	29.898 
17:00	70.3	70.3	70.3	52	51.8	0	2	248	0.00	29.902 
17:05	69.9	69.9	69.9	53	52.0	1	4	315	0.00	29.902 
17:10	69.4	69.4	69.4	54	52.0	1	3	315	0.00	29.902 
17:15	69.3	69.3	69.3	54	51.9	0	2	315	0.00	29.902 
17:20	69.3	69.3	69.3	54	51.9	1	3	315	0.00	29.902 
17:25	69.3	69.3	69.3	55	52.4	0	1	315	0.00	29.902 
17:30	69.6	69.6	69.6	52	51.2	1	3	315	0.00	29.902 
17:35	69.6	69.6	69.6	52	51.2	1	5	292	0.00	29.902 
17:40	69.8	69.8	69.8	53	51.9	0	2	292	0.00	29.902 
17:45	69.8	69.8	69.8	50	50.3	1	3	292	0.00	29.905 
17:50	69.9	69.9	69.9	51	50.9	0	4	315	0.00	29.905 
17:55	69.9	69.9	69.9	50	50.4	0	1	315	0.00	29.905 
18:00	70.1	70.1	70.1	51	51.1	0	2	315	0.00	29.909 
18:05	69.9	69.9	69.9	49	49.9	0	3	315	0.00	29.909 
18:10	70.1	70.1	70.1	49	50.0	0	2	315	0.00	29.909 
18:15	70.1	70.1	70.1	49	50.0	0	3	315	0.00	29.910 
18:20	69.9	69.9	69.9	49	49.9	1	2	315	0.00	29.910 
18:25	69.8	69.8	69.8	49	49.8	0	2	315	0.00	29.910 
18:30	69.6	69.6	69.6	50	50.1	0	1	315	0.00	29.911 
18:35	69.4	69.4	69.4	51	50.5	0	1	315	0.00	29.911 
18:40	69.1	69.1	69.1	51	50.2	0	1	315	0.00	29.911 
18:45	68.8	68.8	68.8	52	50.4	0	1	315	0.00	29.912 
18:50	68.6	68.6	68.6	52	50.3	0	1	315	0.00	29.912 
18:55	68.3	68.3	68.3	53	50.5	0	1	315	0.00	29.912 
19:00	67.9	67.9	67.9	53	50.1	0	1	315	0.00	29.913 
19:05	67.6	67.6	67.6	54	50.4	0	0	---	0.00	29.913 
19:10	67.3	67.3	67.3	55	50.6	0	1	315	0.00	29.913 
19:15	66.9	66.9	66.9	55	50.2	0	0	---	0.00	29.915 
19:20	66.6	66.6	66.6	56	50.4	0	0	---	0.00	29.915 
19:25	66.1	66.1	66.1	57	50.4	0	0	---	0.00	29.915 
19:30	65.8	65.8	65.8	58	50.6	0	0	---	0.00	29.916 
19:35	65.3	65.3	65.3	58	50.1	0	0	---	0.00	29.916 
19:40	65.0	65.0	65.0	59	50.3	0	0	---	0.00	29.916 
19:45	64.7	64.7	64.7	60	50.5	0	0	---	0.00	29.919 
19:50	64.2	64.2	64.2	61	50.5	0	0	---	0.00	29.919 
19:55	63.9	63.9	63.9	62	50.6	0	0	---	0.00	29.919 
20:00	63.5	63.5	63.5	62	50.2	0	0	---	0.00	29.923 
20:05	63.1	63.1	63.1	63	50.3	0	1	315	0.00	29.923 
20:10	62.9	62.9	62.9	64	50.5	0	0	---	0.00	29.923 
20:15	62.7	62.7	62.7	64	50.3	0	0	---	0.00	29.923 
20:20	62.6	62.6	62.6	65	50.7	0	0	---	0.00	29.923 
20:25	62.3	62.3	62.3	65	50.4	0	0	---	0.00	29.923 
20:30	62.1	62.1	62.1	65	50.2	0	0	---	0.00	29.930 
20:35	62.1	62.1	62.1	65	50.2	0	1	315	0.00	29.930 
20:40	62.0	62.0	62.0	66	50.5	0	0	---	0.00	29.930 
20:45	61.8	61.8	61.8	67	50.7	0	0	---	0.00	29.934 
20:50	61.6	61.6	61.6	67	50.5	0	1	315	0.00	29.934 
20:55	61.5	61.5	61.5	68	50.8	0	1	315	0.00	29.934 
21:00	61.5	61.5	61.5	68	50.8	0	0	---	0.00	29.940 
21:05	61.3	61.3	61.3	69	51.0	0	2	0	0.00	29.940 
21:10	61.2	61.2	61.2	69	50.9	0	2	90	0.00	29.940 
21:15	61.0	61.0	61.0	70	51.1	0	1	135	0.00	29.942 
21:20	60.9	60.9	60.9	70	51.0	0	1	135	0.00	29.942 
21:25	60.7	60.7	60.7	70	50.9	0	0	---	0.00	29.942 
21:30	60.5	60.5	60.5	71	51.0	0	0	---	0.00	29.947 
21:35	60.4	60.4	60.4	71	50.9	0	0	---	0.00	29.947 
21:40	60.1	60.1	60.1	72	51.0	0	0	---	0.00	29.947 
21:45	59.9	59.9	59.9	72	50.8	0	0	---	0.00	29.949 
21:50	59.6	59.6	59.6	73	50.9	0	0	---	0.00	29.949 
21:55	59.2	59.2	59.2	74	50.9	0	0	---	0.00	29.949 
22:00	58.9	58.9	58.9	74	50.6	0	0	---	0.00	29.952 
22:05	58.6	58.6	58.6	75	50.7	0	0	---	0.00	29.952 
22:10	58.3	58.3	58.3	76	50.8	0	0	---	0.00	29.952 
22:15	58.0	58.0	58.0	77	50.8	0	0	---	0.00	29.952 
22:20	57.6	57.6	57.6	77	50.4	0	0	---	0.00	29.952 
22:25	57.5	57.5	57.5	78	50.7	0	0	---	0.00	29.952 
22:30	57.2	57.2	57.2	78	50.4	0	0	---	0.00	29.951 
22:35	57.0	57.0	57.0	79	50.5	0	0	---	0.00	29.951 
22:40	56.9	56.9	56.9	80	50.8	0	0	---	0.00	29.951 
22:45	56.9	56.9	56.9	80	50.8	0	1	135	0.00	29.950 
22:50	56.9	56.9	56.9	81	51.1	0	1	135	0.00	29.950 
22:55	57.0	57.0	57.0	80	50.9	0	1	135	0.00	29.950 
23:00	57.2	57.2	57.2	80	51.1	0	1	135	0.00	29.956 
23:05	57.2	57.2	57.2	79	50.7	0	0	---	0.00	29.956 
23:10	57.2	57.2	57.2	79	50.7	0	0	---	0.00	29.956 
23:15	57.2	57.2	57.2	79	50.7	0	1	135	0.00	29.952 
23:20	57.0	57.0	57.0	79	50.5	0	0	---	0.00	29.952 
23:25	56.7	56.7	56.7	79	50.3	0	0	---	0.00	29.952 
23:30	56.6	56.6	56.6	80	50.5	0	0	---	0.00	29.953 
23:35	56.5	56.5	56.5	80	50.4	0	1	135	0.00	29.953 
23:40	56.3	56.3	56.3	81	50.5	0	1	135	0.00	29.953 
23:45	56.3	56.3	56.3	81	50.5	0	1	135	0.00	29.951 
23:50	56.2	56.2	56.2	81	50.4	0	1	135	0.00	29.951 
23:55	56.0	56.0	56.0	81	50.3	0	0	---	0.00	29.951 

CoCoRaHS
IN-AL-39
A2 Web Hosting
Creative Commons License
GoDaddy
search engine by freefind advanced

loaded 2018-11-12 15:34:05 • last modified 2010-11-18 10:43:29
Privacy PolicyDisclaimer
• wx.awcolley.com is powered by PmWiki v.2002016 •
• all content (unless otherwise noted) © 2018 A W Colley